sensor_id;sensor_type;location;lat;lon;timestamp;temperature;humidity
20463;DHT22;10390;53.566;9.980;2023-09-19T00:02:17;27.10;1.00
20463;DHT22;10390;53.566;9.980;2023-09-19T00:04:43;27.10;1.00
20463;DHT22;10390;53.566;9.980;2023-09-19T00:07:09;27.00;1.00
20463;DHT22;10390;53.566;9.980;2023-09-19T00:09:35;27.00;1.00
20463;DHT22;10390;53.566;9.980;2023-09-19T00:12:05;27.00;1.00
20463;DHT22;10390;53.566;9.980;2023-09-19T00:14:31;27.00;1.00
20463;DHT22;10390;53.566;9.980;2023-09-19T00:17:00;27.00;1.00
20463;DHT22;10390;53.566;9.980;2023-09-19T00:19:26;27.00;1.00
20463;DHT22;10390;53.566;9.980;2023-09-19T00:21:52;27.00;1.00
20463;DHT22;10390;53.566;9.980;2023-09-19T00:24:18;26.90;1.00
20463;DHT22;10390;53.566;9.980;2023-09-19T00:26:44;26.90;1.00
20463;DHT22;10390;53.566;9.980;2023-09-19T00:29:11;26.90;1.00
20463;DHT22;10390;53.566;9.980;2023-09-19T00:31:43;26.90;1.00
20463;DHT22;10390;53.566;9.980;2023-09-19T00:34:09;26.90;1.00
20463;DHT22;10390;53.566;9.980;2023-09-19T00:36:36;27.00;1.00
20463;DHT22;10390;53.566;9.980;2023-09-19T00:39:04;26.90;1.00
20463;DHT22;10390;53.566;9.980;2023-09-19T00:41:34;27.00;1.00
20463;DHT22;10390;53.566;9.980;2023-09-19T00:44:02;26.90;1.00
20463;DHT22;10390;53.566;9.980;2023-09-19T00:46:30;27.00;1.00
20463;DHT22;10390;53.566;9.980;2023-09-19T00:48:56;26.90;1.00
20463;DHT22;10390;53.566;9.980;2023-09-19T00:51:24;27.00;1.00
20463;DHT22;10390;53.566;9.980;2023-09-19T00:53:51;27.00;1.00
20463;DHT22;10390;53.566;9.980;2023-09-19T00:56:18;27.00;1.00
20463;DHT22;10390;53.566;9.980;2023-09-19T00:58:47;26.90;1.00
20463;DHT22;10390;53.566;9.980;2023-09-19T01:01:13;27.00;1.00
20463;DHT22;10390;53.566;9.980;2023-09-19T01:03:41;27.00;1.00
20463;DHT22;10390;53.566;9.980;2023-09-19T01:06:07;27.00;1.00
20463;DHT22;10390;53.566;9.980;2023-09-19T01:08:34;27.00;1.00
20463;DHT22;10390;53.566;9.980;2023-09-19T01:11:32;27.00;1.00
20463;DHT22;10390;53.566;9.980;2023-09-19T01:14:58;26.90;1.00
20463;DHT22;10390;53.566;9.980;2023-09-19T01:17:27;26.90;1.00
20463;DHT22;10390;53.566;9.980;2023-09-19T01:20:11;26.90;1.00
20463;DHT22;10390;53.566;9.980;2023-09-19T01:22:48;26.90;1.00
20463;DHT22;10390;53.566;9.980;2023-09-19T01:25:42;26.90;1.00
20463;DHT22;10390;53.566;9.980;2023-09-19T01:30:57;26.90;1.00
20463;DHT22;10390;53.566;9.980;2023-09-19T01:33:25;26.90;1.00
20463;DHT22;10390;53.566;9.980;2023-09-19T01:35:52;26.90;1.00
20463;DHT22;10390;53.566;9.980;2023-09-19T01:38:19;26.90;1.00
20463;DHT22;10390;53.566;9.980;2023-09-19T01:40:56;26.90;1.00
20463;DHT22;10390;53.566;9.980;2023-09-19T01:43:30;26.90;1.00
20463;DHT22;10390;53.566;9.980;2023-09-19T01:46:14;26.90;1.00
20463;DHT22;10390;53.566;9.980;2023-09-19T01:48:49;26.90;1.00
20463;DHT22;10390;53.566;9.980;2023-09-19T01:51:56;26.90;1.00
20463;DHT22;10390;53.566;9.980;2023-09-19T01:54:28;26.90;1.00
20463;DHT22;10390;53.566;9.980;2023-09-19T01:57:15;26.90;1.00
20463;DHT22;10390;53.566;9.980;2023-09-19T01:59:47;26.90;1.00
20463;DHT22;10390;53.566;9.980;2023-09-19T02:02:15;26.90;1.00
20463;DHT22;10390;53.566;9.980;2023-09-19T02:04:43;26.90;1.00
20463;DHT22;10390;53.566;9.980;2023-09-19T02:07:08;26.90;1.00
20463;DHT22;10390;53.566;9.980;2023-09-19T02:09:34;26.90;1.00
20463;DHT22;10390;53.566;9.980;2023-09-19T02:12:01;26.90;1.00
20463;DHT22;10390;53.566;9.980;2023-09-19T02:14:29;26.90;1.00
20463;DHT22;10390;53.566;9.980;2023-09-19T02:16:55;27.00;1.00
20463;DHT22;10390;53.566;9.980;2023-09-19T02:19:22;26.90;1.00
20463;DHT22;10390;53.566;9.980;2023-09-19T02:21:47;26.90;1.00
20463;DHT22;10390;53.566;9.980;2023-09-19T02:24:14;26.90;1.00
20463;DHT22;10390;53.566;9.980;2023-09-19T02:26:40;26.90;1.00
20463;DHT22;10390;53.566;9.980;2023-09-19T02:29:06;26.90;1.00
20463;DHT22;10390;53.566;9.980;2023-09-19T02:31:32;26.90;1.00
20463;DHT22;10390;53.566;9.980;2023-09-19T02:33:57;26.90;1.00
20463;DHT22;10390;53.566;9.980;2023-09-19T02:36:23;26.90;1.00
20463;DHT22;10390;53.566;9.980;2023-09-19T02:38:49;26.90;1.00
20463;DHT22;10390;53.566;9.980;2023-09-19T02:41:15;26.90;1.00
20463;DHT22;10390;53.566;9.980;2023-09-19T02:43:41;26.90;1.00
20463;DHT22;10390;53.566;9.980;2023-09-19T02:46:08;26.80;1.00
20463;DHT22;10390;53.566;9.980;2023-09-19T02:48:34;26.80;1.00
20463;DHT22;10390;53.566;9.980;2023-09-19T02:51:01;26.90;1.00
20463;DHT22;10390;53.566;9.980;2023-09-19T02:53:27;26.90;1.00
20463;DHT22;10390;53.566;9.980;2023-09-19T02:55:53;26.90;1.00
20463;DHT22;10390;53.566;9.980;2023-09-19T02:58:18;26.80;1.00
20463;DHT22;10390;53.566;9.980;2023-09-19T03:00:44;26.80;1.00
20463;DHT22;10390;53.566;9.980;2023-09-19T03:03:15;26.80;1.00
20463;DHT22;10390;53.566;9.980;2023-09-19T03:05:44;26.80;1.00
20463;DHT22;10390;53.566;9.980;2023-09-19T03:08:16;26.80;1.00
20463;DHT22;10390;53.566;9.980;2023-09-19T03:10:42;26.80;1.00
20463;DHT22;10390;53.566;9.980;2023-09-19T03:13:08;26.80;1.00
20463;DHT22;10390;53.566;9.980;2023-09-19T03:15:35;26.80;1.00
20463;DHT22;10390;53.566;9.980;2023-09-19T03:18:04;26.80;1.00
20463;DHT22;10390;53.566;9.980;2023-09-19T03:20:30;26.80;1.00
20463;DHT22;10390;53.566;9.980;2023-09-19T03:22:55;26.80;1.00
20463;DHT22;10390;53.566;9.980;2023-09-19T03:25:22;26.70;1.00
20463;DHT22;10390;53.566;9.980;2023-09-19T03:27:48;26.70;1.00
20463;DHT22;10390;53.566;9.980;2023-09-19T03:30:14;26.70;1.00
20463;DHT22;10390;53.566;9.980;2023-09-19T03:32:47;26.70;1.00
20463;DHT22;10390;53.566;9.980;2023-09-19T03:35:15;26.70;1.00
20463;DHT22;10390;53.566;9.980;2023-09-19T03:37:41;26.70;1.00
20463;DHT22;10390;53.566;9.980;2023-09-19T03:40:08;26.70;1.00
20463;DHT22;10390;53.566;9.980;2023-09-19T03:42:38;26.70;1.00
20463;DHT22;10390;53.566;9.980;2023-09-19T03:45:04;26.70;1.00
20463;DHT22;10390;53.566;9.980;2023-09-19T03:47:31;26.70;1.00
20463;DHT22;10390;53.566;9.980;2023-09-19T03:49:57;26.60;1.00
20463;DHT22;10390;53.566;9.980;2023-09-19T03:52:22;26.60;1.00
20463;DHT22;10390;53.566;9.980;2023-09-19T03:54:48;26.60;1.00
20463;DHT22;10390;53.566;9.980;2023-09-19T03:57:14;26.60;1.00
20463;DHT22;10390;53.566;9.980;2023-09-19T03:59:42;26.60;1.00
20463;DHT22;10390;53.566;9.980;2023-09-19T04:02:11;26.60;1.00
20463;DHT22;10390;53.566;9.980;2023-09-19T04:04:51;26.60;1.00
20463;DHT22;10390;53.566;9.980;2023-09-19T04:07:17;26.60;1.00
20463;DHT22;10390;53.566;9.980;2023-09-19T04:09:44;26.60;1.00
20463;DHT22;10390;53.566;9.980;2023-09-19T04:12:11;26.60;1.00
20463;DHT22;10390;53.566;9.980;2023-09-19T04:14:37;26.60;1.00
20463;DHT22;10390;53.566;9.980;2023-09-19T04:17:04;26.50;1.00
20463;DHT22;10390;53.566;9.980;2023-09-19T04:19:30;26.50;1.00
20463;DHT22;10390;53.566;9.980;2023-09-19T04:21:56;26.50;1.00
20463;DHT22;10390;53.566;9.980;2023-09-19T04:24:22;26.50;1.00
20463;DHT22;10390;53.566;9.980;2023-09-19T04:26:47;26.50;1.00
20463;DHT22;10390;53.566;9.980;2023-09-19T04:29:13;26.50;1.00
20463;DHT22;10390;53.566;9.980;2023-09-19T04:31:39;26.40;1.00
20463;DHT22;10390;53.566;9.980;2023-09-19T04:34:06;26.50;1.00
20463;DHT22;10390;53.566;9.980;2023-09-19T04:36:31;26.40;1.00
20463;DHT22;10390;53.566;9.980;2023-09-19T04:38:57;26.40;1.00
20463;DHT22;10390;53.566;9.980;2023-09-19T04:41:23;26.40;1.00
20463;DHT22;10390;53.566;9.980;2023-09-19T04:43:48;26.40;1.00
20463;DHT22;10390;53.566;9.980;2023-09-19T04:46:16;26.40;1.00
20463;DHT22;10390;53.566;9.980;2023-09-19T04:48:43;26.40;1.00
20463;DHT22;10390;53.566;9.980;2023-09-19T04:51:08;26.40;1.00
20463;DHT22;10390;53.566;9.980;2023-09-19T04:53:36;26.40;1.00
20463;DHT22;10390;53.566;9.980;2023-09-19T04:56:02;26.40;1.00
20463;DHT22;10390;53.566;9.980;2023-09-19T04:58:29;26.40;1.00
20463;DHT22;10390;53.566;9.980;2023-09-19T05:00:54;26.30;1.00
20463;DHT22;10390;53.566;9.980;2023-09-19T05:03:20;26.30;1.00
20463;DHT22;10390;53.566;9.980;2023-09-19T05:05:46;26.30;1.00
20463;DHT22;10390;53.566;9.980;2023-09-19T05:08:12;26.30;1.00
20463;DHT22;10390;53.566;9.980;2023-09-19T05:10:40;26.30;1.00
20463;DHT22;10390;53.566;9.980;2023-09-19T05:13:06;26.30;1.00
20463;DHT22;10390;53.566;9.980;2023-09-19T05:15:35;26.30;1.00
20463;DHT22;10390;53.566;9.980;2023-09-19T05:18:01;26.30;1.00
20463;DHT22;10390;53.566;9.980;2023-09-19T05:20:27;26.30;1.00
20463;DHT22;10390;53.566;9.980;2023-09-19T05:23:07;26.30;1.00
20463;DHT22;10390;53.566;9.980;2023-09-19T05:25:39;26.30;1.00
20463;DHT22;10390;53.566;9.980;2023-09-19T05:28:06;26.30;1.00
20463;DHT22;10390;53.566;9.980;2023-09-19T05:30:34;26.30;1.00
20463;DHT22;10390;53.566;9.980;2023-09-19T05:33:08;26.30;1.00
20463;DHT22;10390;53.566;9.980;2023-09-19T05:35:35;26.20;1.00
20463;DHT22;10390;53.566;9.980;2023-09-19T05:38:05;26.20;1.00
20463;DHT22;10390;53.566;9.980;2023-09-19T05:40:34;26.20;1.00
20463;DHT22;10390;53.566;9.980;2023-09-19T05:43:00;26.10;1.00
20463;DHT22;10390;53.566;9.980;2023-09-19T05:45:26;26.20;1.00
20463;DHT22;10390;53.566;9.980;2023-09-19T05:47:53;26.10;1.00
20463;DHT22;10390;53.566;9.980;2023-09-19T05:50:26;26.10;1.00
20463;DHT22;10390;53.566;9.980;2023-09-19T05:52:54;26.10;1.00
20463;DHT22;10390;53.566;9.980;2023-09-19T05:55:21;26.10;1.00
20463;DHT22;10390;53.566;9.980;2023-09-19T05:57:53;26.10;1.00
20463;DHT22;10390;53.566;9.980;2023-09-19T06:00:20;26.10;1.00
20463;DHT22;10390;53.566;9.980;2023-09-19T06:02:52;26.10;1.00
20463;DHT22;10390;53.566;9.980;2023-09-19T06:05:18;26.00;1.00
20463;DHT22;10390;53.566;9.980;2023-09-19T06:07:43;26.00;1.00
20463;DHT22;10390;53.566;9.980;2023-09-19T06:10:09;26.00;1.00
20463;DHT22;10390;53.566;9.980;2023-09-19T06:12:39;26.00;1.00
20463;DHT22;10390;53.566;9.980;2023-09-19T06:15:05;26.00;1.00
20463;DHT22;10390;53.566;9.980;2023-09-19T06:17:31;25.90;1.00
20463;DHT22;10390;53.566;9.980;2023-09-19T06:19:57;26.00;1.00
20463;DHT22;10390;53.566;9.980;2023-09-19T06:22:23;26.00;1.00
20463;DHT22;10390;53.566;9.980;2023-09-19T06:24:50;25.90;1.00
20463;DHT22;10390;53.566;9.980;2023-09-19T06:27:15;26.00;1.00
20463;DHT22;10390;53.566;9.980;2023-09-19T06:29:41;26.00;1.00
20463;DHT22;10390;53.566;9.980;2023-09-19T06:32:10;25.90;1.00
20463;DHT22;10390;53.566;9.980;2023-09-19T06:34:36;25.90;1.00
20463;DHT22;10390;53.566;9.980;2023-09-19T06:37:04;26.00;1.00
20463;DHT22;10390;53.566;9.980;2023-09-19T06:39:31;25.90;1.00
20463;DHT22;10390;53.566;9.980;2023-09-19T06:41:57;25.90;1.00
20463;DHT22;10390;53.566;9.980;2023-09-19T06:44:23;25.90;1.00
20463;DHT22;10390;53.566;9.980;2023-09-19T06:46:50;25.90;1.00
20463;DHT22;10390;53.566;9.980;2023-09-19T06:49:17;25.90;1.00
20463;DHT22;10390;53.566;9.980;2023-09-19T06:51:43;26.00;1.00
20463;DHT22;10390;53.566;9.980;2023-09-19T06:54:10;26.00;1.00
20463;DHT22;10390;53.566;9.980;2023-09-19T06:56:36;26.00;1.00
20463;DHT22;10390;53.566;9.980;2023-09-19T06:59:02;26.10;1.00
20463;DHT22;10390;53.566;9.980;2023-09-19T07:01:31;26.10;1.00
20463;DHT22;10390;53.566;9.980;2023-09-19T07:03:57;26.10;1.00
20463;DHT22;10390;53.566;9.980;2023-09-19T07:06:23;26.20;1.00
20463;DHT22;10390;53.566;9.980;2023-09-19T07:08:49;26.20;1.00
20463;DHT22;10390;53.566;9.980;2023-09-19T07:11:15;26.30;1.00
20463;DHT22;10390;53.566;9.980;2023-09-19T07:13:41;26.30;1.00
20463;DHT22;10390;53.566;9.980;2023-09-19T07:16:07;26.30;1.00
20463;DHT22;10390;53.566;9.980;2023-09-19T07:18:36;26.40;1.00
20463;DHT22;10390;53.566;9.980;2023-09-19T07:21:02;26.40;1.00
20463;DHT22;10390;53.566;9.980;2023-09-19T07:23:30;26.40;1.00
20463;DHT22;10390;53.566;9.980;2023-09-19T07:26:00;26.50;1.00
20463;DHT22;10390;53.566;9.980;2023-09-19T07:28:26;26.50;1.00
20463;DHT22;10390;53.566;9.980;2023-09-19T07:30:52;26.50;1.00
20463;DHT22;10390;53.566;9.980;2023-09-19T07:33:18;26.60;1.00
20463;DHT22;10390;53.566;9.980;2023-09-19T07:35:47;26.60;1.00
20463;DHT22;10390;53.566;9.980;2023-09-19T07:38:13;26.60;1.00
20463;DHT22;10390;53.566;9.980;2023-09-19T07:40:39;26.70;1.00
20463;DHT22;10390;53.566;9.980;2023-09-19T07:43:05;26.60;1.00
20463;DHT22;10390;53.566;9.980;2023-09-19T07:45:32;26.70;1.00
20463;DHT22;10390;53.566;9.980;2023-09-19T07:47:58;26.70;1.00
20463;DHT22;10390;53.566;9.980;2023-09-19T07:50:29;26.70;1.00
20463;DHT22;10390;53.566;9.980;2023-09-19T07:52:55;26.80;1.00
20463;DHT22;10390;53.566;9.980;2023-09-19T07:55:22;26.80;1.00
20463;DHT22;10390;53.566;9.980;2023-09-19T07:57:50;26.90;1.00
20463;DHT22;10390;53.566;9.980;2023-09-19T08:00:17;26.80;1.00
20463;DHT22;10390;53.566;9.980;2023-09-19T08:02:43;26.90;1.00
20463;DHT22;10390;53.566;9.980;2023-09-19T08:05:12;26.90;1.00
20463;DHT22;10390;53.566;9.980;2023-09-19T08:07:41;26.90;1.00
20463;DHT22;10390;53.566;9.980;2023-09-19T08:10:08;26.90;1.00
20463;DHT22;10390;53.566;9.980;2023-09-19T08:12:39;27.00;1.00
20463;DHT22;10390;53.566;9.980;2023-09-19T08:15:12;27.00;1.00
20463;DHT22;10390;53.566;9.980;2023-09-19T08:17:38;27.00;1.00
20463;DHT22;10390;53.566;9.980;2023-09-19T08:20:04;27.00;1.00
20463;DHT22;10390;53.566;9.980;2023-09-19T08:22:30;27.00;1.00
20463;DHT22;10390;53.566;9.980;2023-09-19T08:24:57;27.10;1.00
20463;DHT22;10390;53.566;9.980;2023-09-19T08:27:23;27.10;1.00
20463;DHT22;10390;53.566;9.980;2023-09-19T08:29:52;27.10;1.00
20463;DHT22;10390;53.566;9.980;2023-09-19T08:32:18;27.10;1.00
20463;DHT22;10390;53.566;9.980;2023-09-19T08:34:49;27.10;1.00
20463;DHT22;10390;53.566;9.980;2023-09-19T08:37:15;27.20;1.00
20463;DHT22;10390;53.566;9.980;2023-09-19T08:39:44;27.20;1.00
20463;DHT22;10390;53.566;9.980;2023-09-19T08:42:10;27.20;1.00
20463;DHT22;10390;53.566;9.980;2023-09-19T08:44:37;27.20;1.00
20463;DHT22;10390;53.566;9.980;2023-09-19T08:47:15;27.20;1.00
20463;DHT22;10390;53.566;9.980;2023-09-19T08:52:20;27.20;1.00
20463;DHT22;10390;53.566;9.980;2023-09-19T08:54:51;27.30;1.00
20463;DHT22;10390;53.566;9.980;2023-09-19T08:57:18;27.30;1.00
20463;DHT22;10390;53.566;9.980;2023-09-19T08:59:48;27.30;1.00
20463;DHT22;10390;53.566;9.980;2023-09-19T09:02:15;27.30;1.00
20463;DHT22;10390;53.566;9.980;2023-09-19T09:04:45;27.30;1.00
20463;DHT22;10390;53.566;9.980;2023-09-19T09:07:14;27.30;1.00
20463;DHT22;10390;53.566;9.980;2023-09-19T09:09:42;27.30;1.00
20463;DHT22;10390;53.566;9.980;2023-09-19T09:12:13;27.40;1.00
20463;DHT22;10390;53.566;9.980;2023-09-19T09:14:48;27.40;1.00
20463;DHT22;10390;53.566;9.980;2023-09-19T09:17:16;27.40;1.00
20463;DHT22;10390;53.566;9.980;2023-09-19T09:19:46;27.40;1.00
20463;DHT22;10390;53.566;9.980;2023-09-19T09:22:12;27.40;1.00
20463;DHT22;10390;53.566;9.980;2023-09-19T09:24:54;27.40;1.00
20463;DHT22;10390;53.566;9.980;2023-09-19T09:27:20;27.40;1.00
20463;DHT22;10390;53.566;9.980;2023-09-19T09:29:50;27.50;1.00
20463;DHT22;10390;53.566;9.980;2023-09-19T09:32:26;27.40;1.00
20463;DHT22;10390;53.566;9.980;2023-09-19T09:35:00;27.50;1.00
20463;DHT22;10390;53.566;9.980;2023-09-19T09:37:26;27.50;1.00
20463;DHT22;10390;53.566;9.980;2023-09-19T09:40:01;27.40;1.00
20463;DHT22;10390;53.566;9.980;2023-09-19T09:42:44;27.50;1.00
20463;DHT22;10390;53.566;9.980;2023-09-19T09:45:20;27.50;1.00
20463;DHT22;10390;53.566;9.980;2023-09-19T09:47:58;27.50;1.00
20463;DHT22;10390;53.566;9.980;2023-09-19T09:50:36;27.60;1.00
20463;DHT22;10390;53.566;9.980;2023-09-19T09:53:05;27.50;1.00
20463;DHT22;10390;53.566;9.980;2023-09-19T09:55:57;27.60;1.00
20463;DHT22;10390;53.566;9.980;2023-09-19T09:58:26;27.50;1.00
20463;DHT22;10390;53.566;9.980;2023-09-19T10:00:56;27.60;1.00
20463;DHT22;10390;53.566;9.980;2023-09-19T10:03:40;27.60;1.00
20463;DHT22;10390;53.566;9.980;2023-09-19T10:06:16;27.60;1.00
20463;DHT22;10390;53.566;9.980;2023-09-19T10:09:07;27.60;1.00
20463;DHT22;10390;53.566;9.980;2023-09-19T10:11:41;27.70;1.00
20463;DHT22;10390;53.566;9.980;2023-09-19T10:14:12;27.70;1.00
20463;DHT22;10390;53.566;9.980;2023-09-19T10:16:58;27.70;1.00
20463;DHT22;10390;53.566;9.980;2023-09-19T10:19:54;27.70;1.00
20463;DHT22;10390;53.566;9.980;2023-09-19T10:22:26;27.70;1.00
20463;DHT22;10390;53.566;9.980;2023-09-19T10:24:57;27.70;1.00
20463;DHT22;10390;53.566;9.980;2023-09-19T10:27:29;27.80;1.00
20463;DHT22;10390;53.566;9.980;2023-09-19T10:30:06;27.80;1.00
20463;DHT22;10390;53.566;9.980;2023-09-19T10:32:35;27.80;1.00
20463;DHT22;10390;53.566;9.980;2023-09-19T10:35:07;27.80;1.00
20463;DHT22;10390;53.566;9.980;2023-09-19T10:37:36;27.80;1.00
20463;DHT22;10390;53.566;9.980;2023-09-19T10:40:07;27.80;1.00
20463;DHT22;10390;53.566;9.980;2023-09-19T10:42:38;27.90;1.00
20463;DHT22;10390;53.566;9.980;2023-09-19T10:45:06;27.90;1.00
20463;DHT22;10390;53.566;9.980;2023-09-19T10:47:40;27.90;1.00
20463;DHT22;10390;53.566;9.980;2023-09-19T10:50:22;27.90;1.00
20463;DHT22;10390;53.566;9.980;2023-09-19T10:52:50;27.90;1.00
20463;DHT22;10390;53.566;9.980;2023-09-19T10:55:27;28.00;1.00
20463;DHT22;10390;53.566;9.980;2023-09-19T10:58:01;28.00;1.00
20463;DHT22;10390;53.566;9.980;2023-09-19T11:00:59;28.00;1.00
20463;DHT22;10390;53.566;9.980;2023-09-19T11:03:28;28.00;1.00
20463;DHT22;10390;53.566;9.980;2023-09-19T11:06:16;28.00;1.00
20463;DHT22;10390;53.566;9.980;2023-09-19T11:08:59;28.00;1.00
20463;DHT22;10390;53.566;9.980;2023-09-19T11:11:44;28.00;1.00
20463;DHT22;10390;53.566;9.980;2023-09-19T11:30:52;28.10;1.00
20463;DHT22;10390;53.566;9.980;2023-09-19T11:33:24;28.10;1.00
20463;DHT22;10390;53.566;9.980;2023-09-19T11:46:51;28.20;1.00
20463;DHT22;10390;53.566;9.980;2023-09-19T11:49:29;28.20;1.00
20463;DHT22;10390;53.566;9.980;2023-09-19T11:52:02;28.20;1.00
20463;DHT22;10390;53.566;9.980;2023-09-19T11:54:31;28.20;1.00
20463;DHT22;10390;53.566;9.980;2023-09-19T11:57:01;28.20;1.00
20463;DHT22;10390;53.566;9.980;2023-09-19T11:59:29;28.20;1.00
20463;DHT22;10390;53.566;9.980;2023-09-19T12:02:04;28.20;1.00
20463;DHT22;10390;53.566;9.980;2023-09-19T12:04:43;28.20;1.00
20463;DHT22;10390;53.566;9.980;2023-09-19T12:07:14;28.30;1.00
20463;DHT22;10390;53.566;9.980;2023-09-19T12:10:04;28.30;1.00
20463;DHT22;10390;53.566;9.980;2023-09-19T12:12:30;28.30;1.00
20463;DHT22;10390;53.566;9.980;2023-09-19T12:14:58;28.30;1.00
20463;DHT22;10390;53.566;9.980;2023-09-19T12:17:38;28.30;1.00
20463;DHT22;10390;53.566;9.980;2023-09-19T12:20:08;28.30;1.00
20463;DHT22;10390;53.566;9.980;2023-09-19T12:22:45;28.30;1.00
20463;DHT22;10390;53.566;9.980;2023-09-19T12:25:12;28.30;1.00
20463;DHT22;10390;53.566;9.980;2023-09-19T12:27:45;28.30;1.00
20463;DHT22;10390;53.566;9.980;2023-09-19T12:30:13;28.40;1.00
20463;DHT22;10390;53.566;9.980;2023-09-19T12:32:49;28.40;1.00
20463;DHT22;10390;53.566;9.980;2023-09-19T12:35:30;28.40;1.00
20463;DHT22;10390;53.566;9.980;2023-09-19T12:38:00;28.40;1.00
20463;DHT22;10390;53.566;9.980;2023-09-19T12:40:32;28.40;1.00
20463;DHT22;10390;53.566;9.980;2023-09-19T12:42:59;28.40;1.00
20463;DHT22;10390;53.566;9.980;2023-09-19T12:45:28;28.40;1.00
20463;DHT22;10390;53.566;9.980;2023-09-19T12:48:27;28.40;1.00
20463;DHT22;10390;53.566;9.980;2023-09-19T12:51:13;28.40;1.00
20463;DHT22;10390;53.566;9.980;2023-09-19T12:53:44;28.40;1.00
20463;DHT22;10390;53.566;9.980;2023-09-19T12:56:16;28.40;1.00
20463;DHT22;10390;53.566;9.980;2023-09-19T13:01:20;28.40;1.00
20463;DHT22;10390;53.566;9.980;2023-09-19T13:04:31;28.40;1.00
20463;DHT22;10390;53.566;9.980;2023-09-19T13:06:40;28.40;1.00
20463;DHT22;10390;53.566;9.980;2023-09-19T13:09:09;28.50;1.00
20463;DHT22;10390;53.566;9.980;2023-09-19T13:11:41;28.50;1.00
20463;DHT22;10390;53.566;9.980;2023-09-19T13:14:26;28.40;1.00
20463;DHT22;10390;53.566;9.980;2023-09-19T13:19:51;28.40;1.00
20463;DHT22;10390;53.566;9.980;2023-09-19T13:22:44;28.50;1.00
20463;DHT22;10390;53.566;9.980;2023-09-19T13:25:22;28.50;1.00
20463;DHT22;10390;53.566;9.980;2023-09-19T13:30:20;28.50;1.00
20463;DHT22;10390;53.566;9.980;2023-09-19T13:32:51;28.50;1.00
20463;DHT22;10390;53.566;9.980;2023-09-19T13:35:26;28.40;1.00
20463;DHT22;10390;53.566;9.980;2023-09-19T13:37:59;28.40;1.00
20463;DHT22;10390;53.566;9.980;2023-09-19T13:40:26;28.40;1.00
20463;DHT22;10390;53.566;9.980;2023-09-19T13:42:56;28.30;1.00
20463;DHT22;10390;53.566;9.980;2023-09-19T13:45:24;28.30;1.00
20463;DHT22;10390;53.566;9.980;2023-09-19T13:47:59;28.20;1.00
20463;DHT22;10390;53.566;9.980;2023-09-19T13:50:24;28.20;1.00
20463;DHT22;10390;53.566;9.980;2023-09-19T13:52:54;28.20;1.00
20463;DHT22;10390;53.566;9.980;2023-09-19T13:55:21;28.20;1.00
20463;DHT22;10390;53.566;9.980;2023-09-19T13:57:47;28.20;1.00
20463;DHT22;10390;53.566;9.980;2023-09-19T14:00:27;28.10;1.00
20463;DHT22;10390;53.566;9.980;2023-09-19T14:06:02;28.20;1.00
20463;DHT22;10390;53.566;9.980;2023-09-19T14:08:30;28.20;1.00
20463;DHT22;10390;53.566;9.980;2023-09-19T14:14:00;28.20;1.00
20463;DHT22;10390;53.566;9.980;2023-09-19T14:16:26;28.20;1.00
20463;DHT22;10390;53.566;9.980;2023-09-19T14:19:00;28.20;1.00
20463;DHT22;10390;53.566;9.980;2023-09-19T14:21:27;28.30;1.00
20463;DHT22;10390;53.566;9.980;2023-09-19T14:23:58;28.30;1.00
20463;DHT22;10390;53.566;9.980;2023-09-19T14:26:26;28.30;1.00
20463;DHT22;10390;53.566;9.980;2023-09-19T14:28:51;28.30;1.00
20463;DHT22;10390;53.566;9.980;2023-09-19T14:31:22;28.30;1.00
20463;DHT22;10390;53.566;9.980;2023-09-19T14:34:03;28.30;1.00
20463;DHT22;10390;53.566;9.980;2023-09-19T14:36:32;28.30;1.00
20463;DHT22;10390;53.566;9.980;2023-09-19T14:38:59;28.30;1.00
20463;DHT22;10390;53.566;9.980;2023-09-19T14:41:25;28.30;1.00
20463;DHT22;10390;53.566;9.980;2023-09-19T14:43:54;28.30;1.00
20463;DHT22;10390;53.566;9.980;2023-09-19T14:46:24;28.30;1.00
20463;DHT22;10390;53.566;9.980;2023-09-19T14:48:51;28.30;1.00
20463;DHT22;10390;53.566;9.980;2023-09-19T14:51:17;28.30;1.00
20463;DHT22;10390;53.566;9.980;2023-09-19T14:53:44;28.30;1.00
20463;DHT22;10390;53.566;9.980;2023-09-19T14:56:15;28.30;1.00
20463;DHT22;10390;53.566;9.980;2023-09-19T14:58:48;28.30;1.00
20463;DHT22;10390;53.566;9.980;2023-09-19T15:01:14;28.30;1.00
20463;DHT22;10390;53.566;9.980;2023-09-19T15:03:43;28.30;1.00
20463;DHT22;10390;53.566;9.980;2023-09-19T15:06:10;28.30;1.00
20463;DHT22;10390;53.566;9.980;2023-09-19T15:08:41;28.30;1.00
20463;DHT22;10390;53.566;9.980;2023-09-19T15:11:19;28.30;1.00
20463;DHT22;10390;53.566;9.980;2023-09-19T15:13:46;28.30;1.00
20463;DHT22;10390;53.566;9.980;2023-09-19T15:16:12;28.30;1.00
20463;DHT22;10390;53.566;9.980;2023-09-19T15:18:45;28.30;1.00
20463;DHT22;10390;53.566;9.980;2023-09-19T15:21:13;28.30;1.00
20463;DHT22;10390;53.566;9.980;2023-09-19T15:23:47;28.30;1.00
20463;DHT22;10390;53.566;9.980;2023-09-19T15:26:33;28.30;1.00
20463;DHT22;10390;53.566;9.980;2023-09-19T15:29:00;28.30;1.00
20463;DHT22;10390;53.566;9.980;2023-09-19T15:31:26;28.30;1.00
20463;DHT22;10390;53.566;9.980;2023-09-19T15:33:52;28.30;1.00
20463;DHT22;10390;53.566;9.980;2023-09-19T15:36:17;28.30;1.00
20463;DHT22;10390;53.566;9.980;2023-09-19T15:39:02;28.30;1.00
20463;DHT22;10390;53.566;9.980;2023-09-19T15:44:14;28.30;1.00
20463;DHT22;10390;53.566;9.980;2023-09-19T15:46:43;28.30;1.00
20463;DHT22;10390;53.566;9.980;2023-09-19T15:49:11;28.30;1.00
20463;DHT22;10390;53.566;9.980;2023-09-19T15:51:40;28.30;1.00
20463;DHT22;10390;53.566;9.980;2023-09-19T15:54:15;28.30;1.00
20463;DHT22;10390;53.566;9.980;2023-09-19T15:56:46;28.30;1.00
20463;DHT22;10390;53.566;9.980;2023-09-19T15:59:12;28.30;1.00
20463;DHT22;10390;53.566;9.980;2023-09-19T16:01:41;28.30;1.00
20463;DHT22;10390;53.566;9.980;2023-09-19T16:04:11;28.30;1.00
20463;DHT22;10390;53.566;9.980;2023-09-19T16:06:43;28.30;1.00
20463;DHT22;10390;53.566;9.980;2023-09-19T16:09:12;28.30;1.00
20463;DHT22;10390;53.566;9.980;2023-09-19T16:11:37;28.30;1.00
20463;DHT22;10390;53.566;9.980;2023-09-19T16:14:16;28.30;1.00
20463;DHT22;10390;53.566;9.980;2023-09-19T16:16:45;28.30;1.00
20463;DHT22;10390;53.566;9.980;2023-09-19T16:19:18;28.20;1.00
20463;DHT22;10390;53.566;9.980;2023-09-19T16:21:44;28.20;1.00
20463;DHT22;10390;53.566;9.980;2023-09-19T16:24:17;28.20;1.00
20463;DHT22;10390;53.566;9.980;2023-09-19T16:26:45;28.20;1.00
20463;DHT22;10390;53.566;9.980;2023-09-19T16:29:19;28.10;1.00
20463;DHT22;10390;53.566;9.980;2023-09-19T16:31:47;28.20;1.00
20463;DHT22;10390;53.566;9.980;2023-09-19T16:34:13;28.20;1.00
20463;DHT22;10390;53.566;9.980;2023-09-19T16:36:46;28.20;1.00
20463;DHT22;10390;53.566;9.980;2023-09-19T16:39:11;28.20;1.00
20463;DHT22;10390;53.566;9.980;2023-09-19T16:41:37;28.20;1.00
20463;DHT22;10390;53.566;9.980;2023-09-19T16:44:03;28.20;1.00
20463;DHT22;10390;53.566;9.980;2023-09-19T16:46:36;28.20;1.00
20463;DHT22;10390;53.566;9.980;2023-09-19T16:49:05;28.20;1.00
20463;DHT22;10390;53.566;9.980;2023-09-19T16:51:37;28.20;1.00
20463;DHT22;10390;53.566;9.980;2023-09-19T16:54:06;28.20;1.00